Terminal Aerodrome Forecast
Issued by NWS

Home | Current Version | Previous Version | Text Only | Print | Product List | Glossary On
Versions: 1 2 3 4 5 6 7 8 9 10 11 12 13 14 15 16 17 18 19 20 21 22 23 24 25 26 27 28
000
FTUS42 KCAE 010300 CCA
TAFCUB
TAF COR
KCUB 010307Z 0103/0124 VRB04KT P6SM VCSH SCT025 BKN035
      TEMPO 0103/0104 BKN025
     FM010400 00000KT P6SM SCT015 OVC025
     FM010900 00000KT 4SM BR OVC008
     FM011400 07005KT P6SM OVC015
     FM012000 06007KT P6SM VCSH OVC050=

USA.gov is the U.S. government's official web portal to all federal, state and local government web resources and services.